createdAt,value
2018-09-19T00:00:02.798Z,17.80
2018-09-19T00:02:31.274Z,17.80
2018-09-19T00:04:59.790Z,17.80
2018-09-19T00:07:28.237Z,17.70
2018-09-19T00:09:56.752Z,17.60
2018-09-19T00:12:25.207Z,17.50
2018-09-19T00:14:53.686Z,17.50
2018-09-19T00:17:22.153Z,17.50
2018-09-19T00:19:50.645Z,17.40
2018-09-19T00:22:19.146Z,17.40
2018-09-19T00:24:47.699Z,17.40
2018-09-19T00:27:16.201Z,17.40
2018-09-19T00:29:44.818Z,17.40
2018-09-19T00:32:13.323Z,17.30
2018-09-19T00:34:41.817Z,17.30
2018-09-19T00:37:10.323Z,17.20
2018-09-19T00:39:38.846Z,17.20
2018-09-19T00:42:07.302Z,17.20
2018-09-19T00:44:35.796Z,17.20
2018-09-19T00:47:04.278Z,17.20
2018-09-19T00:49:32.769Z,17.20
2018-09-19T00:52:01.247Z,17.30
2018-09-19T00:54:29.758Z,17.30
2018-09-19T00:56:58.220Z,17.30
2018-09-19T00:59:26.781Z,17.30
2018-09-19T01:01:55.317Z,17.30
2018-09-19T01:04:23.810Z,17.40
2018-09-19T01:06:52.378Z,17.40
2018-09-19T01:09:20.935Z,17.40
2018-09-19T01:11:49.399Z,17.40
2018-09-19T01:14:17.897Z,17.30
2018-09-19T01:16:46.368Z,17.30
2018-09-19T01:19:14.886Z,17.30
2018-09-19T01:21:43.413Z,17.30
2018-09-19T01:24:11.944Z,17.40
2018-09-19T01:26:40.432Z,17.40
2018-09-19T01:29:08.944Z,17.40
2018-09-19T01:31:37.412Z,17.40
2018-09-19T01:34:05.934Z,17.40
2018-09-19T01:36:34.426Z,17.40
2018-09-19T01:39:03.003Z,17.40
2018-09-19T01:41:31.482Z,17.40
2018-09-19T01:43:59.993Z,17.40
2018-09-19T01:46:28.475Z,17.40
2018-09-19T01:48:56.974Z,17.40
2018-09-19T01:51:25.454Z,17.40
2018-09-19T01:53:53.936Z,17.40
2018-09-19T01:56:22.404Z,17.40
2018-09-19T01:58:50.928Z,17.40
2018-09-19T02:01:19.384Z,17.40
2018-09-19T02:03:48.085Z,17.40
2018-09-19T02:06:16.777Z,17.30
2018-09-19T02:08:45.302Z,17.30
2018-09-19T02:11:13.761Z,17.30
2018-09-19T02:13:42.278Z,17.40
2018-09-19T02:16:10.761Z,17.30
2018-09-19T02:18:39.348Z,17.40
2018-09-19T02:21:07.870Z,17.40
2018-09-19T02:23:36.341Z,17.40
2018-09-19T02:26:04.945Z,17.50
2018-09-19T02:28:33.466Z,17.50
2018-09-19T02:31:01.976Z,17.50
2018-09-19T02:33:30.491Z,17.50
2018-09-19T02:35:59.041Z,17.50
2018-09-19T02:38:27.472Z,17.50
2018-09-19T02:40:55.926Z,17.50
2018-09-19T02:43:24.345Z,17.50
2018-09-19T02:45:52.836Z,17.50
2018-09-19T02:48:21.297Z,17.50
2018-09-19T02:50:49.834Z,17.40
2018-09-19T02:53:18.296Z,17.50
2018-09-19T02:55:46.803Z,17.40
2018-09-19T02:58:15.281Z,17.40
2018-09-19T03:00:43.773Z,17.40
2018-09-19T03:03:12.259Z,17.40
2018-09-19T03:05:40.755Z,17.40
2018-09-19T03:08:09.278Z,17.40
2018-09-19T03:10:37.789Z,17.40
2018-09-19T03:13:06.270Z,17.40
2018-09-19T03:15:34.836Z,17.30
2018-09-19T03:18:03.324Z,17.30
2018-09-19T03:20:31.790Z,17.40
2018-09-19T03:23:00.514Z,17.40
2018-09-19T03:25:29.035Z,17.30
2018-09-19T03:27:57.511Z,17.30
2018-09-19T03:30:25.956Z,17.30
2018-09-19T03:32:54.419Z,17.20
2018-09-19T03:35:22.945Z,17.30
2018-09-19T03:37:51.372Z,17.20
2018-09-19T03:40:19.836Z,17.20
2018-09-19T03:42:48.312Z,17.20
2018-09-19T03:45:16.755Z,17.20
2018-09-19T03:47:45.230Z,17.20
2018-09-19T03:50:13.716Z,17.20
2018-09-19T03:52:42.182Z,17.20
2018-09-19T03:55:10.635Z,17.20
2018-09-19T03:57:39.317Z,17.10
2018-09-19T04:00:08.227Z,17.10
2018-09-19T04:02:36.703Z,17.10
2018-09-19T04:05:05.670Z,17.10
2018-09-19T04:07:34.149Z,17.10
2018-09-19T04:10:02.655Z,17.10
2018-09-19T04:12:31.162Z,17.10
2018-09-19T04:14:59.758Z,17.00
2018-09-19T04:17:28.211Z,17.00
2018-09-19T04:19:56.667Z,17.00
2018-09-19T04:22:25.148Z,17.00
2018-09-19T04:24:53.650Z,17.00
2018-09-19T04:27:22.135Z,17.00
2018-09-19T04:29:50.607Z,16.90
2018-09-19T04:32:19.226Z,16.90
2018-09-19T04:34:47.598Z,16.90
2018-09-19T04:37:16.063Z,16.90
2018-09-19T04:39:44.513Z,16.80
2018-09-19T04:42:13.080Z,16.80
2018-09-19T04:44:41.549Z,16.80
2018-09-19T04:47:10.240Z,16.80
2018-09-19T04:49:38.722Z,16.80
2018-09-19T04:52:07.724Z,16.80
2018-09-19T04:54:36.346Z,16.80
2018-09-19T04:57:04.917Z,16.70
2018-09-19T04:59:33.388Z,16.70
2018-09-19T05:02:01.873Z,16.70
2018-09-19T05:04:30.323Z,16.70
2018-09-19T05:06:58.793Z,16.70
2018-09-19T05:09:27.267Z,16.60
2018-09-19T05:11:55.736Z,16.70
2018-09-19T05:14:24.178Z,16.60
2018-09-19T05:16:52.638Z,16.60
2018-09-19T05:19:21.076Z,16.60
2018-09-19T05:21:49.550Z,16.60
2018-09-19T05:24:17.984Z,16.60
2018-09-19T05:26:46.538Z,16.60
2018-09-19T05:29:14.965Z,16.60
2018-09-19T05:31:43.461Z,16.60
2018-09-19T05:34:11.931Z,16.50
2018-09-19T05:36:40.406Z,16.50
2018-09-19T05:39:09.140Z,16.50
2018-09-19T05:41:37.737Z,16.40
2018-09-19T05:44:06.274Z,16.40
2018-09-19T05:46:34.810Z,16.40
2018-09-19T05:49:03.257Z,16.40
2018-09-19T05:51:31.737Z,16.30
2018-09-19T05:54:00.182Z,16.30
2018-09-19T05:56:28.650Z,16.20
2018-09-19T05:58:57.108Z,16.20
2018-09-19T06:01:25.607Z,16.20
2018-09-19T06:03:54.251Z,16.20
2018-09-19T06:06:22.750Z,16.20
2018-09-19T06:08:51.214Z,16.10
2018-09-19T06:11:19.799Z,16.10
2018-09-19T06:13:48.345Z,16.10
2018-09-19T06:16:16.818Z,16.10
2018-09-19T06:18:45.255Z,16.10
2018-09-19T06:21:13.753Z,16.10
2018-09-19T06:23:42.184Z,16.10
2018-09-19T06:26:10.651Z,16.10
2018-09-19T06:28:39.074Z,16.20
2018-09-19T06:31:07.718Z,16.20
2018-09-19T06:33:36.236Z,15.60
2018-09-19T06:36:04.719Z,16.40
2018-09-19T06:38:33.135Z,16.40
2018-09-19T06:41:01.802Z,16.50
2018-09-19T06:43:30.244Z,16.60
2018-09-19T06:45:59.138Z,16.60
2018-09-19T06:48:27.590Z,16.70
2018-09-19T06:50:56.036Z,16.80
2018-09-19T06:53:24.501Z,16.90
2018-09-19T06:55:52.973Z,17.00
2018-09-19T06:58:21.445Z,17.10
2018-09-19T07:00:49.889Z,17.10
2018-09-19T07:03:18.345Z,17.20
2018-09-19T07:05:46.882Z,17.30
2018-09-19T07:08:15.507Z,17.40
2018-09-19T07:10:44.046Z,17.40
2018-09-19T07:13:12.483Z,17.50
2018-09-19T07:15:40.946Z,17.50
2018-09-19T07:18:09.463Z,17.60
2018-09-19T07:20:37.930Z,17.60
2018-09-19T07:23:06.522Z,17.60
2018-09-19T07:25:34.973Z,17.70
2018-09-19T07:28:03.508Z,17.70
2018-09-19T07:30:31.928Z,17.80
2018-09-19T07:33:00.419Z,17.80
2018-09-19T07:35:28.879Z,17.90
2018-09-19T07:37:57.422Z,18.00
2018-09-19T07:40:25.907Z,18.00
2018-09-19T07:42:54.354Z,18.10
2018-09-19T07:45:22.807Z,18.20
2018-09-19T07:47:51.282Z,18.20
2018-09-19T07:50:19.774Z,18.30
2018-09-19T07:52:48.244Z,18.40
2018-09-19T07:55:16.719Z,18.50
2018-09-19T07:57:45.204Z,18.50
2018-09-19T08:00:13.643Z,18.60
2018-09-19T08:02:42.102Z,18.60
2018-09-19T08:05:10.574Z,18.70
2018-09-19T08:07:39.076Z,18.70
2018-09-19T08:10:07.548Z,18.80
2018-09-19T08:12:36.038Z,18.90
2018-09-19T08:15:04.531Z,18.90
2018-09-19T08:17:33.020Z,19.00
2018-09-19T08:20:01.458Z,19.10
2018-09-19T08:22:29.998Z,18.70
2018-09-19T08:24:58.379Z,19.30
2018-09-19T08:27:26.815Z,19.50
2018-09-19T08:29:55.275Z,19.70
2018-09-19T08:32:23.760Z,19.90
2018-09-19T08:34:52.224Z,20.10
2018-09-19T08:37:20.709Z,20.30
2018-09-19T08:39:49.197Z,20.40
2018-09-19T08:42:17.806Z,20.70
2018-09-19T08:44:46.287Z,20.90
2018-09-19T08:47:14.809Z,21.30
2018-09-19T08:49:43.342Z,21.50
2018-09-19T08:52:11.787Z,21.70
2018-09-19T08:54:40.427Z,22.00
2018-09-19T08:57:08.921Z,22.30
2018-09-19T08:59:37.486Z,22.60
2018-09-19T09:02:05.996Z,22.90
2018-09-19T09:04:34.473Z,23.10
2018-09-19T09:07:02.919Z,23.20
2018-09-19T09:09:31.430Z,23.20
2018-09-19T09:11:59.976Z,23.20
2018-09-19T09:14:28.508Z,23.20
2018-09-19T09:16:56.973Z,23.10
2018-09-19T09:19:25.455Z,23.20
2018-09-19T09:21:53.894Z,23.10
2018-09-19T09:24:22.431Z,23.10
2018-09-19T09:26:50.902Z,23.30
2018-09-19T09:29:19.367Z,23.40
2018-09-19T09:31:47.920Z,23.50
2018-09-19T09:34:16.419Z,23.50
2018-09-19T09:36:44.978Z,23.50
2018-09-19T09:39:13.438Z,23.40
2018-09-19T09:41:41.905Z,23.20
2018-09-19T09:44:10.480Z,23.10
2018-09-19T09:46:38.979Z,23.00
2018-09-19T09:49:07.454Z,22.90
2018-09-19T09:51:35.983Z,22.70
2018-09-19T09:54:04.470Z,22.60
2018-09-19T09:56:32.919Z,22.50
2018-09-19T09:59:01.450Z,22.50
2018-09-19T10:01:29.888Z,22.60
2018-09-19T10:03:58.342Z,22.80
2018-09-19T10:06:26.853Z,23.00
2018-09-19T10:08:55.308Z,23.00
2018-09-19T10:11:23.741Z,23.10
2018-09-19T10:13:52.249Z,23.10
2018-09-19T10:16:20.705Z,22.90
2018-09-19T10:18:49.177Z,22.80
2018-09-19T10:21:17.785Z,22.70
2018-09-19T10:23:46.296Z,22.60
2018-09-19T10:26:14.714Z,22.60
2018-09-19T10:28:43.188Z,22.50
2018-09-19T10:31:11.631Z,22.40
2018-09-19T10:33:40.088Z,22.40
2018-09-19T10:36:08.556Z,22.50
2018-09-19T10:38:37.011Z,22.50
2018-09-19T10:41:05.447Z,22.60
2018-09-19T10:43:33.975Z,22.80
2018-09-19T10:46:02.440Z,22.90
2018-09-19T10:48:30.975Z,23.00
2018-09-19T10:50:59.433Z,23.00
2018-09-19T10:53:27.972Z,22.90
2018-09-19T10:55:56.414Z,22.90
2018-09-19T10:58:24.903Z,22.90
2018-09-19T11:00:53.355Z,22.80
2018-09-19T11:03:21.873Z,22.90
2018-09-19T11:05:50.364Z,22.90
2018-09-19T11:08:18.904Z,23.20
2018-09-19T11:10:47.430Z,23.30
2018-09-19T11:13:15.898Z,23.60
2018-09-19T11:15:44.341Z,23.90
2018-09-19T11:18:12.819Z,24.00
2018-09-19T11:20:41.277Z,24.10
2018-09-19T11:23:10.606Z,24.10
2018-09-19T11:25:39.058Z,24.20
2018-09-19T11:28:07.636Z,24.40
2018-09-19T11:30:36.080Z,24.60
2018-09-19T11:33:04.578Z,25.20
2018-09-19T11:35:33.120Z,25.50
2018-09-19T11:38:01.650Z,25.60
2018-09-19T11:40:30.145Z,25.90
2018-09-19T11:42:58.868Z,26.30
2018-09-19T11:45:27.491Z,26.50
2018-09-19T11:47:55.986Z,26.80
2018-09-19T11:50:24.436Z,27.10
2018-09-19T11:52:52.914Z,27.40
2018-09-19T11:55:21.368Z,27.60
2018-09-19T11:57:49.847Z,27.90
2018-09-19T12:00:18.321Z,28.20
2018-09-19T12:02:47.378Z,28.20
2018-09-19T12:05:15.843Z,28.30
2018-09-19T12:07:44.304Z,28.40
2018-09-19T12:10:12.844Z,28.60
2018-09-19T12:12:41.273Z,28.80
2018-09-19T12:15:09.769Z,29.10
2018-09-19T12:17:38.218Z,29.50
2018-09-19T12:20:06.730Z,29.60
2018-09-19T12:22:35.190Z,29.70
2018-09-19T12:25:03.854Z,29.80
2018-09-19T12:27:32.317Z,30.00
2018-09-19T12:30:00.952Z,29.90
2018-09-19T12:32:29.389Z,29.70
2018-09-19T12:34:57.857Z,29.70
2018-09-19T12:37:26.307Z,29.90
2018-09-19T12:39:54.797Z,29.90
2018-09-19T12:42:23.286Z,30.10
2018-09-19T12:44:51.758Z,30.30
2018-09-19T12:47:20.295Z,30.60
2018-09-19T12:49:49.282Z,30.60
2018-09-19T12:52:17.765Z,30.60
2018-09-19T12:54:46.256Z,30.70
2018-09-19T12:57:14.699Z,30.70
2018-09-19T12:59:43.198Z,30.90
2018-09-19T13:02:11.663Z,31.00
2018-09-19T13:04:41.039Z,30.80
2018-09-19T13:07:09.507Z,30.80
2018-09-19T13:09:38.014Z,30.90
2018-09-19T13:12:06.531Z,30.90
2018-09-19T13:14:35.008Z,30.80
2018-09-19T13:17:03.474Z,30.80
2018-09-19T13:19:31.967Z,30.90
2018-09-19T13:22:00.430Z,30.90
2018-09-19T13:24:28.902Z,30.60
2018-09-19T13:26:57.402Z,30.70
2018-09-19T13:29:25.883Z,30.90
2018-09-19T13:31:54.903Z,31.10
2018-09-19T13:34:23.381Z,31.20
2018-09-19T13:36:51.813Z,31.20
2018-09-19T13:39:20.292Z,31.20
2018-09-19T13:41:48.733Z,31.30
2018-09-19T13:44:17.205Z,31.30
2018-09-19T13:46:45.684Z,31.30
2018-09-19T13:49:23.213Z,31.40
2018-09-19T13:51:51.654Z,31.40
2018-09-19T13:54:20.157Z,31.30
2018-09-19T13:56:48.593Z,31.40
2018-09-19T13:59:17.148Z,31.50
2018-09-19T14:01:45.612Z,31.50
2018-09-19T14:04:14.400Z,31.60
2018-09-19T14:06:42.863Z,31.70
2018-09-19T14:09:11.355Z,31.90
2018-09-19T14:11:39.864Z,31.80
2018-09-19T14:14:08.331Z,31.70
2018-09-19T14:16:36.808Z,31.70
2018-09-19T14:19:05.447Z,31.70
2018-09-19T14:21:33.913Z,31.40
2018-09-19T14:24:02.376Z,31.50
2018-09-19T14:26:30.910Z,31.50
2018-09-19T14:28:59.357Z,31.40
2018-09-19T14:31:27.888Z,31.30
2018-09-19T14:33:56.363Z,31.20
2018-09-19T14:36:24.915Z,31.10
2018-09-19T14:38:53.399Z,31.00
2018-09-19T14:41:22.026Z,31.00
2018-09-19T14:43:50.428Z,31.00
2018-09-19T14:46:18.923Z,30.80
2018-09-19T14:48:47.394Z,30.80
2018-09-19T14:51:15.866Z,30.70
2018-09-19T14:53:44.316Z,30.70
2018-09-19T14:56:12.798Z,30.80
2018-09-19T14:58:41.264Z,30.90
2018-09-19T15:01:09.736Z,31.00
2018-09-19T15:03:38.173Z,30.80
2018-09-19T15:06:06.719Z,30.70
2018-09-19T15:08:35.206Z,30.60
2018-09-19T15:11:03.941Z,30.40
2018-09-19T15:13:32.455Z,30.40
2018-09-19T15:16:00.926Z,30.20
2018-09-19T15:18:29.369Z,29.90
2018-09-19T15:20:57.875Z,29.80
2018-09-19T15:23:26.423Z,29.70
2018-09-19T15:25:54.929Z,29.50
2018-09-19T15:28:23.492Z,29.30
2018-09-19T15:30:52.007Z,29.20
2018-09-19T15:33:20.470Z,29.10
2018-09-19T15:35:49.037Z,28.90
2018-09-19T15:38:17.497Z,28.80
2018-09-19T15:40:45.994Z,28.70
2018-09-19T15:43:14.470Z,28.60
2018-09-19T15:45:42.949Z,28.40
2018-09-19T15:48:11.403Z,28.40
2018-09-19T15:50:39.892Z,28.20
2018-09-19T15:53:08.341Z,28.10
2018-09-19T15:55:36.891Z,28.00
2018-09-19T15:58:05.328Z,27.90
2018-09-19T16:00:33.862Z,27.90
2018-09-19T16:03:02.391Z,27.80
2018-09-19T16:05:30.846Z,27.70
2018-09-19T16:07:59.290Z,27.60
2018-09-19T16:10:27.802Z,27.50
2018-09-19T16:12:56.261Z,27.40
2018-09-19T16:15:24.763Z,27.30
2018-09-19T16:17:53.193Z,27.20
2018-09-19T16:20:22.006Z,27.10
2018-09-19T16:22:50.443Z,27.00
2018-09-19T16:25:19.283Z,26.90
2018-09-19T16:27:47.717Z,26.80
2018-09-19T16:30:16.148Z,26.70
2018-09-19T16:32:44.710Z,26.70
2018-09-19T16:35:13.171Z,26.50
2018-09-19T16:37:41.729Z,26.50
2018-09-19T16:40:10.220Z,26.40
2018-09-19T16:42:38.699Z,26.40
2018-09-19T16:45:07.254Z,26.30
2018-09-19T16:47:35.772Z,26.20
2018-09-19T16:50:04.605Z,26.10
2018-09-19T16:52:33.102Z,26.00
2018-09-19T16:55:01.537Z,25.90
2018-09-19T16:57:30.030Z,25.80
2018-09-19T16:59:58.461Z,25.70
2018-09-19T17:02:26.981Z,25.60
2018-09-19T17:04:55.409Z,25.50
2018-09-19T17:07:23.879Z,25.40
2018-09-19T17:09:52.336Z,25.30
2018-09-19T17:12:20.800Z,25.10
2018-09-19T17:14:49.254Z,24.90
2018-09-19T17:17:17.743Z,24.80
2018-09-19T17:19:46.364Z,24.60
2018-09-19T17:22:14.891Z,24.50
2018-09-19T17:24:43.373Z,24.40
2018-09-19T17:27:11.894Z,24.20
2018-09-19T17:29:40.345Z,24.20
2018-09-19T17:32:08.946Z,24.10
2018-09-19T17:34:44.110Z,24.00
2018-09-19T17:37:12.622Z,23.80
2018-09-19T17:39:41.159Z,23.80
2018-09-19T17:42:09.676Z,23.60
2018-09-19T17:44:38.207Z,23.60
2018-09-19T17:47:06.897Z,23.40
2018-09-19T17:49:35.431Z,23.40
2018-09-19T17:52:04.135Z,23.30
2018-09-19T17:54:33.409Z,23.20
2018-09-19T17:57:01.926Z,23.10
2018-09-19T17:59:30.529Z,22.90
2018-09-19T18:01:58.990Z,22.80
2018-09-19T18:04:27.491Z,22.70
2018-09-19T18:06:55.943Z,22.60
2018-09-19T18:09:25.610Z,22.50
2018-09-19T18:11:55.896Z,22.40
2018-09-19T18:14:25.869Z,22.30
2018-09-19T18:16:54.281Z,22.30
2018-09-19T18:19:22.872Z,22.20
2018-09-19T18:21:51.303Z,22.10
2018-09-19T18:24:19.835Z,22.10
2018-09-19T18:26:48.263Z,22.00
2018-09-19T18:29:16.739Z,22.00
2018-09-19T18:31:45.161Z,21.90
2018-09-19T18:34:13.623Z,21.90
2018-09-19T18:36:42.064Z,21.80
2018-09-19T18:39:10.551Z,21.80
2018-09-19T18:41:39.098Z,21.70
2018-09-19T18:44:07.594Z,21.70
2018-09-19T18:46:36.052Z,21.60
2018-09-19T18:49:04.547Z,21.60
2018-09-19T18:51:33.012Z,21.50
2018-09-19T18:54:01.492Z,21.40
2018-09-19T18:56:29.927Z,21.40
2018-09-19T18:58:58.437Z,21.30
2018-09-19T19:01:26.853Z,21.20
2018-09-19T19:03:55.329Z,21.20
2018-09-19T19:06:23.766Z,21.10
2018-09-19T19:08:52.306Z,21.00
2018-09-19T19:11:20.766Z,20.90
2018-09-19T19:13:49.341Z,20.90
2018-09-19T19:16:18.096Z,20.80
2018-09-19T19:18:59.983Z,20.80
2018-09-19T19:21:28.552Z,20.60
2018-09-19T19:24:00.235Z,20.50
2018-09-19T19:26:30.255Z,20.50
2018-09-19T19:28:58.878Z,20.40
2018-09-19T19:31:27.347Z,20.30
2018-09-19T19:33:55.872Z,20.20
2018-09-19T19:36:24.707Z,20.20
2018-09-19T19:38:53.267Z,20.10
2018-09-19T19:41:22.035Z,20.00
2018-09-19T19:43:50.553Z,20.00
2018-09-19T19:46:19.123Z,19.90
2018-09-19T19:48:47.598Z,19.90
2018-09-19T19:51:16.077Z,19.90
2018-09-19T19:53:44.555Z,19.80
2018-09-19T19:56:13.060Z,19.80
2018-09-19T19:58:41.617Z,19.70
2018-09-19T20:01:10.145Z,19.70
2018-09-19T20:03:38.657Z,19.60
2018-09-19T20:06:07.247Z,19.50
2018-09-19T20:08:35.771Z,19.40
2018-09-19T20:11:04.273Z,19.30
2018-09-19T20:13:32.730Z,19.30
2018-09-19T20:16:01.164Z,19.20
2018-09-19T20:18:29.645Z,19.20
2018-09-19T20:20:58.267Z,19.10
2018-09-19T20:23:26.755Z,19.10
2018-09-19T20:25:55.194Z,19.00
2018-09-19T20:28:24.075Z,19.00
2018-09-19T20:30:52.566Z,18.90
2018-09-19T20:33:21.029Z,18.90
2018-09-19T20:35:50.061Z,18.80
2018-09-19T20:38:18.523Z,18.80
2018-09-19T20:40:46.985Z,18.80
2018-09-19T20:43:15.456Z,18.80
2018-09-19T20:45:43.951Z,18.70
2018-09-19T20:48:12.867Z,18.70
2018-09-19T20:50:41.411Z,18.70
2018-09-19T20:53:09.905Z,18.70
2018-09-19T20:55:38.410Z,18.60
2018-09-19T20:58:06.879Z,18.60
2018-09-19T21:00:35.388Z,18.60
2018-09-19T21:03:03.852Z,18.50
2018-09-19T21:05:32.347Z,18.50
2018-09-19T21:08:03.447Z,18.40
2018-09-19T21:10:32.030Z,18.40
2018-09-19T21:13:00.462Z,18.40
2018-09-19T21:15:29.004Z,18.40
2018-09-19T21:17:57.459Z,18.40
2018-09-19T21:20:25.974Z,18.40
2018-09-19T21:22:54.424Z,18.40
2018-09-19T21:25:22.951Z,18.30
2018-09-19T21:27:51.390Z,18.30
2018-09-19T21:30:19.870Z,18.30
2018-09-19T21:32:48.410Z,18.70
2018-09-19T21:35:16.980Z,18.30
2018-09-19T21:37:45.420Z,18.30
2018-09-19T21:40:13.945Z,18.20
2018-09-19T21:42:42.726Z,18.20
2018-09-19T21:45:11.195Z,18.20
2018-09-19T21:47:39.674Z,18.10
2018-09-19T21:50:08.126Z,18.10
2018-09-19T21:52:36.650Z,18.10
2018-09-19T21:55:05.120Z,18.00
2018-09-19T21:57:33.701Z,18.00
2018-09-19T22:00:02.525Z,17.90
2018-09-19T22:02:31.042Z,17.90
2018-09-19T22:04:59.542Z,17.80
2018-09-19T22:07:28.037Z,17.80
2018-09-19T22:09:56.667Z,17.70
2018-09-19T22:12:25.237Z,17.70
2018-09-19T22:14:53.699Z,17.70
2018-09-19T22:17:22.231Z,17.70
2018-09-19T22:19:50.664Z,17.60
2018-09-19T22:22:19.193Z,17.60
2018-09-19T22:24:47.701Z,17.60
2018-09-19T22:27:16.216Z,17.60
2018-09-19T22:29:44.719Z,17.60
2018-09-19T22:32:13.232Z,18.10
2018-09-19T22:34:41.713Z,17.50
2018-09-19T22:37:10.213Z,17.50
2018-09-19T22:39:38.671Z,17.40
2018-09-19T22:42:07.196Z,17.40
2018-09-19T22:44:35.691Z,17.40
2018-09-19T22:47:04.347Z,17.40
2018-09-19T22:49:32.804Z,17.40
2018-09-19T22:52:01.498Z,17.30
2018-09-19T22:54:29.935Z,17.30
2018-09-19T22:56:58.433Z,17.30
2018-09-19T22:59:26.892Z,17.30
2018-09-19T23:01:55.414Z,17.30
2018-09-19T23:04:23.882Z,17.20
2018-09-19T23:06:52.368Z,17.20
2018-09-19T23:09:20.867Z,17.20
2018-09-19T23:11:49.343Z,17.20
2018-09-19T23:14:17.798Z,17.20
2018-09-19T23:16:46.247Z,17.10
2018-09-19T23:19:14.735Z,17.10
2018-09-19T23:21:43.208Z,17.10
2018-09-19T23:24:11.693Z,17.00
2018-09-19T23:26:40.231Z,17.00
2018-09-19T23:29:08.696Z,17.00
2018-09-19T23:31:37.153Z,16.90
2018-09-19T23:34:05.643Z,17.00
2018-09-19T23:36:34.104Z,16.90
2018-09-19T23:39:02.587Z,16.90
2018-09-19T23:41:31.044Z,16.90
2018-09-19T23:43:59.549Z,16.90
2018-09-19T23:46:28.016Z,16.80
2018-09-19T23:48:56.552Z,16.80
2018-09-19T23:51:25.002Z,16.80
2018-09-19T23:53:53.518Z,16.80
2018-09-19T23:56:21.956Z,16.80
2018-09-19T23:58:50.489Z,16.70
